Time;durP1;ratioP1;P1;durP2;ratioP2;P2;SDS_P1;SDS_P2;PMS_P1;PMS_P2;Temp;Humidity;BMP_temperature;BMP_pressure;BME280_temperature;BME280_humidity;BME280_pressure;Samples;Min_cycle;Max_cycle;Signal;HPM_P1;HPM_P2
2022/10/31 00:00:00;;;;;;;0.00;0.00;;;9.60;99.90;;;8.23;100.00;101416.38;4997886;28;20041;-87
2022/10/31 00:02:49;;;;;;;0.00;0.00;;;9.60;99.90;;;8.31;100.00;101426.66;4994756;28;20029;-88
2022/10/31 00:05:28;;;;;;;0.00;0.00;;;;;;;8.34;100.00;101424.84;5002867;28;20036;-87
2022/10/31 00:08:38;;;;;;;0.00;0.00;;;9.60;99.90;;;8.34;100.00;101424.84;4995933;28;20037;-87
2022/10/31 00:11:11;;;;;;;0.00;0.00;;;9.60;99.90;;;8.29;100.00;101418.81;4982422;28;20042;-87
2022/10/31 00:20:00;;;;;;;0.00;0.00;;;;;;;8.29;100.00;101424.06;5034157;28;20049;-87
2022/10/31 00:26:20;;;;;;;0.00;0.00;;;;;;;8.17;100.00;101429.66;4949344;29;20474;-88
2022/10/31 00:29:47;;;;;;;0.00;0.00;;;9.40;99.90;;;8.14;100.00;101429.72;5007809;28;20037;-87
2022/10/31 00:32:30;;;;;;;0.00;0.00;;;;;;;8.06;100.00;101431.69;5000435;28;20031;-87
2022/10/31 00:35:58;;;;;;;0.00;0.00;;;9.30;99.90;;;8.09;100.00;101440.31;4996344;28;20033;-88
2022/10/31 01:11:59;;;;;;;0.10;0.10;;;9.50;99.90;;;8.17;100.00;101454.13;5038362;28;20049;-85
2022/10/31 01:14:30;;;;;;;0.00;0.00;;;9.40;99.90;;;8.11;100.00;101448.16;5014369;28;20163;-86
2022/10/31 01:16:56;;;;;;;0.00;0.00;;;9.40;99.90;;;8.08;100.00;101443.84;5009484;28;20022;-85
2022/10/31 01:19:21;;;;;;;0.00;0.00;;;9.40;99.90;;;8.08;100.00;101442.97;5036124;28;20044;-85
2022/10/31 01:21:47;;;;;;;0.00;0.00;;;9.40;99.90;;;8.12;100.00;101449.88;5020638;28;20033;-85
2022/10/31 01:24:13;;;;;;;0.00;0.00;;;9.30;99.90;;;8.14;100.00;101450.69;5022303;28;20389;-85
2022/10/31 01:26:38;;;;;;;0.00;0.00;;;9.40;99.90;;;8.08;100.00;101443.84;5024049;28;20032;-85
2022/10/31 01:29:10;;;;;;;0.00;0.00;;;9.30;99.90;;;8.08;100.00;101442.97;5024104;28;20025;-85
2022/10/31 01:31:39;;;;;;;0.00;0.00;;;9.30;99.90;;;8.07;100.00;101441.25;5004236;28;20112;-85
2022/10/31 01:34:06;;;;;;;0.00;0.00;;;9.30;99.90;;;8.06;100.00;101440.41;5023430;28;20025;-85
2022/10/31 01:36:37;;;;;;;0.00;0.00;;;9.30;99.90;;;8.09;100.00;101444.72;5036331;28;20016;-85
2022/10/31 01:39:13;;;;;;;0.00;0.00;;;9.30;99.90;;;8.06;100.00;101445.66;5038080;28;20104;-85
2022/10/31 01:41:49;;;;;;;0.00;0.00;;;9.30;99.90;;;8.06;100.00;101445.66;5001309;28;20029;-85
2022/10/31 01:44:15;;;;;;;;;;;9.30;99.90;;;8.03;100.00;101448.34;5022459;28;20052;-85
2022/10/31 01:46:54;;;;;;;0.00;0.00;;;9.30;99.90;;;7.99;100.00;101450.19;5023816;28;19909;-85
2022/10/31 01:49:32;;;;;;;0.00;0.00;;;;;;;8.00;100.00;101446.66;5014097;28;20493;-84
2022/10/31 01:52:09;;;;;;;0.00;0.00;;;9.20;99.90;;;8.00;100.00;101449.28;5021753;28;20033;-85
2022/10/31 01:54:40;;;;;;;0.00;0.00;;;9.30;99.90;;;8.02;100.00;101450.09;5019800;28;20674;-85
2022/10/31 01:57:14;;;;;;;0.00;0.00;;;9.30;99.90;;;7.98;100.00;101443.22;5004431;28;20030;-86
2022/10/31 01:59:50;;;;;;;0.00;0.00;;;9.20;99.90;;;7.93;100.00;101450.34;5017368;28;20026;-85
2022/10/31 02:02:17;;;;;;;;;;;9.20;99.90;;;7.79;100.00;101442.78;5008085;28;20022;-85
2022/10/31 02:04:46;;;;;;;0.00;0.00;;;9.10;99.90;;;7.77;100.00;101447.19;5001067;28;20262;-85
2022/10/31 02:08:11;;;;;;;0.00;0.00;;;9.10;99.90;;;7.76;100.00;101439.41;5018368;28;20026;-85
2022/10/31 02:10:37;;;;;;;0.00;0.00;;;9.10;99.90;;;7.75;100.00;101441.16;5033305;28;20065;-85
2022/10/31 02:13:14;;;;;;;0.00;0.00;;;9.00;99.90;;;7.74;100.00;101441.19;5012583;28;20375;-85
2022/10/31 02:15:42;;;;;;;0.00;0.00;;;9.00;99.90;;;7.70;100.00;101437.75;5013114;28;20030;-85
2022/10/31 02:18:09;;;;;;;0.00;0.00;;;9.00;99.90;;;7.71;100.00;101449.09;5025962;28;20033;-85
2022/10/31 02:20:55;;;;;;;0.00;0.00;;;9.00;99.90;;;7.73;100.00;101453.44;5020932;28;20493;-85
2022/10/31 02:23:29;;;;;;;0.00;0.00;;;9.00;99.90;;;7.69;100.00;101449.16;5015134;28;20028;-85
2022/10/31 02:26:36;;;;;;;0.00;0.00;;;9.00;99.90;;;7.71;100.00;101452.63;5031066;28;20030;-85
2022/10/31 02:29:32;;;;;;;0.00;0.00;;;8.90;99.90;;;7.70;100.00;101458.72;5010472;28;20022;-85
2022/10/31 02:32:29;;;;;;;0.00;0.00;;;9.00;99.90;;;7.70;100.00;101461.34;5015137;28;20053;-84
2022/10/31 02:35:20;;;;;;;0.00;0.00;;;9.00;99.90;;;7.71;100.00;101455.22;5001799;28;20473;-85
2022/10/31 02:37:48;;;;;;;0.00;0.00;;;9.00;99.90;;;7.72;100.00;101456.94;5018123;28;20116;-85
2022/10/31 02:40:36;;;;;;;0.00;0.00;;;9.00;99.90;;;7.73;100.00;101465.66;5034717;28;20025;-85
2022/10/31 02:43:38;;;;;;;0.00;0.00;;;9.00;99.90;;;7.68;100.00;101443.94;5021370;28;20033;-85
2022/10/31 02:46:34;;;;;;;0.00;0.00;;;9.00;99.90;;;7.67;100.00;101455.34;5022507;28;20032;-85
2022/10/31 02:49:18;;;;;;;0.00;0.00;;;8.90;99.90;;;7.67;100.00;101457.97;5014603;28;20037;-85
2022/10/31 02:51:50;;;;;;;0.00;0.00;;;8.90;99.90;;;7.65;100.00;101454.50;5017802;28;20033;-85
2022/10/31 02:54:34;;;;;;;0.00;0.00;;;8.90;99.90;;;7.64;100.00;101450.16;5015782;28;20037;-85
2022/10/31 02:57:11;;;;;;;0.00;0.00;;;8.90;99.90;;;7.67;100.00;101452.72;5027544;28;20033;-83
2022/10/31 02:59:55;;;;;;;;;;;;;;;;;;;;;
2022/10/31 03:03:02;;;;;;;0.00;0.00;;;9.00;99.90;;;7.73;100.00;101452.56;5012632;28;20028;-85
2022/10/31 03:06:02;;;;;;;0.00;0.00;;;8.90;99.90;;;7.73;100.00;101458.69;5019457;28;20035;-85
2022/10/31 03:08:57;;;;;;;0.00;0.00;;;9.00;99.90;;;7.75;100.00;101463.88;4999951;28;20061;-86
2022/10/31 03:11:34;;;;;;;0.00;0.00;;;9.00;99.90;;;7.77;100.00;101464.69;5025555;28;20037;-86
2022/10/31 03:14:24;;;;;;;0.00;0.00;;;9.00;99.90;;;7.77;100.00;101469.94;5007281;28;21109;-85
2022/10/31 03:17:00;;;;;;;0.00;0.00;;;9.00;99.90;;;7.74;100.00;101465.63;5018312;28;20030;-85
2022/10/31 03:19:54;;;;;;;0.00;0.00;;;8.90;99.90;;;7.68;100.00;101471.00;5020432;28;20055;-85
2022/10/31 03:22:30;;;;;;;0.00;0.00;;;9.00;99.90;;;7.61;100.00;101466.81;5023540;28;20120;-86
2022/10/31 03:25:02;;;;;;;0.00;0.00;;;8.80;99.90;;;7.59;100.00;101465.97;5025015;28;20024;-87
2022/10/31 03:27:41;;;;;;;0.00;0.00;;;8.90;99.90;;;7.59;100.00;101466.84;5025125;28;20025;-86
2022/10/31 03:30:08;;;;;;;0.00;0.00;;;8.90;99.90;;;7.58;100.00;101465.13;5011180;28;20026;-86
2022/10/31 03:32:47;;;;;;;0.00;0.00;;;8.90;99.90;;;7.58;100.00;101466.88;5023477;28;20034;-86
2022/10/31 03:35:18;;;;;;;0.00;0.00;;;8.80;99.90;;;7.54;100.00;101462.63;5019393;28;20044;-86
2022/10/31 03:37:46;;;;;;;0.00;0.00;;;8.80;99.90;;;7.51;100.00;101471.38;5020357;28;20049;-86
2022/10/31 03:40:15;;;;;;;0.00;0.00;;;8.80;99.90;;;7.49;100.00;101464.47;5026488;28;20393;-87
2022/10/31 03:42:51;;;;;;;0.00;0.00;;;8.80;99.90;;;7.45;100.00;101468.91;5021378;28;20698;-86
2022/10/31 03:45:32;;;;;;;0.00;0.00;;;8.70;99.90;;;7.36;100.00;101482.19;5037678;28;20040;-86
2022/10/31 03:47:59;;;;;;;0.00;0.00;;;8.70;99.90;;;7.25;100.00;101479.81;5024803;28;20056;-86
2022/10/31 03:50:37;;;;;;;0.00;0.00;;;;;;;7.21;100.00;101480.75;5026300;28;20033;-86
2022/10/31 03:53:19;;;;;;;0.00;0.00;;;8.50;99.90;;;7.17;100.00;101487.84;5016088;28;20037;-86
2022/10/31 03:56:06;;;;;;;0.00;0.00;;;8.50;99.90;;;7.18;100.00;101486.94;5011899;28;20096;-86
2022/10/31 03:58:53;;;;;;;0.00;0.00;;;8.50;99.90;;;7.17;100.00;101479.09;5020967;28;20572;-85
2022/10/31 04:01:28;;;;;;;0.00;0.00;;;8.50;99.90;;;7.17;100.00;101479.09;5026110;28;20390;-86
2022/10/31 04:03:58;;;;;;;0.00;0.00;;;8.50;99.90;;;7.18;100.00;101486.94;5024279;28;20054;-86
2022/10/31 04:06:31;;;;;;;0.00;0.00;;;8.50;99.90;;;7.19;100.00;101493.91;5006171;28;20105;-85
2022/10/31 04:09:03;;;;;;;0.00;0.00;;;8.40;99.90;;;7.18;100.00;101489.53;5019418;28;20040;-85
2022/10/31 04:11:36;;;;;;;0.00;0.00;;;8.50;99.90;;;7.15;100.00;101489.63;5019837;28;20490;-87
2022/10/31 04:14:07;;;;;;;0.00;0.00;;;8.50;99.90;;;7.13;100.00;101499.25;5003208;28;20037;-86
2022/10/31 04:16:39;;;;;;;0.00;0.00;;;8.40;99.90;;;7.12;100.00;101496.66;5017791;28;20085;-85
2022/10/31 04:19:05;;;;;;;0.00;0.00;;;8.40;99.90;;;7.11;100.00;101494.94;5012087;28;20031;-85
2022/10/31 04:21:31;;;;;;;0.00;0.00;;;;;;;7.11;100.00;101502.81;5016903;28;20030;-86
2022/10/31 04:23:57;;;;;;;0.00;0.00;;;8.40;99.90;;;7.10;100.00;101499.31;5021415;28;20587;-85
2022/10/31 04:26:34;;;;;;;0.00;0.00;;;8.40;99.90;;;7.12;100.00;101488.81;5023165;28;20413;-86
2022/10/31 04:29:01;;;;;;;0.00;0.00;;;;;;;7.14;100.00;101494.88;5026538;28;20076;-86
2022/10/31 04:31:27;;;;;;;0.00;0.00;;;8.40;99.90;;;7.17;100.00;101495.69;5017857;28;20034;-85
2022/10/31 04:33:53;;;;;;;0.00;0.00;;;8.50;99.90;;;7.21;100.00;101495.63;5009466;28;20087;-86
2022/10/31 04:36:24;;;;;;;0.00;0.00;;;;;;;7.25;100.00;101498.13;5012110;28;21431;-86
2022/10/31 04:38:49;;;;;;;0.00;0.00;;;8.50;99.90;;;7.29;100.00;101493.72;5020113;28;20037;-87
2022/10/31 04:41:18;;;;;;;0.00;0.00;;;8.60;99.90;;;7.32;100.00;101498.88;5017574;28;20026;-86
2022/10/31 04:43:51;;;;;;;0.00;0.00;;;8.60;99.90;;;7.37;100.00;101497.03;5012967;28;20058;-87
2022/10/31 04:46:17;;;;;;;0.00;0.00;;;8.70;99.90;;;7.41;100.00;101498.69;5003111;28;20021;-86
2022/10/31 04:48:53;;;;;;;;;;;;;;;;;;;;;
2022/10/31 04:51:19;;;;;;;0.00;0.00;;;8.70;99.90;;;7.52;100.00;101490.63;5022226;28;21268;-86
2022/10/31 04:53:47;;;;;;;0.00;0.00;;;8.80;99.90;;;7.52;100.00;101491.47;5025897;28;20029;-86
2022/10/31 04:56:22;;;;;;;0.00;0.00;;;8.80;99.90;;;7.53;100.00;101494.94;5022418;28;20401;-86
2022/10/31 04:58:48;;;;;;;0.00;0.00;;;8.80;99.90;;;7.52;100.00;101486.22;5027119;28;20033;-85
2022/10/31 05:01:13;;;;;;;0.00;0.00;;;8.80;99.90;;;7.54;100.00;101484.44;5008823;28;20486;-86
2022/10/31 05:03:39;;;;;;;0.00;0.00;;;8.80;99.90;;;7.57;100.00;101492.22;5015383;28;20051;-86
2022/10/31 05:06:06;;;;;;;0.00;0.00;;;8.80;99.90;;;7.56;100.00;101482.66;5001303;28;20025;-86
2022/10/31 05:08:41;;;;;;;0.00;0.00;;;;;;;7.53;100.00;101489.69;5027970;28;20037;-86
2022/10/31 05:11:07;;;;;;;0.00;0.00;;;8.70;99.90;;;7.40;100.00;101497.81;5022398;28;20056;-86
2022/10/31 05:13:33;;;;;;;0.00;0.00;;;8.70;99.90;;;7.33;100.00;101496.22;5001744;28;20057;-86
2022/10/31 05:15:58;;;;;;;0.00;0.00;;;8.60;99.90;;;7.32;100.00;101501.50;5040309;28;20108;-86
2022/10/31 05:18:45;;;;;;;0.00;0.00;;;8.60;99.90;;;7.32;100.00;101499.75;5011130;28;20022;-86
2022/10/31 05:21:10;;;;;;;0.00;0.00;;;8.60;99.90;;;7.28;100.00;101494.59;5034341;28;20029;-87
2022/10/31 05:23:39;;;;;;;0.00;0.00;;;8.60;99.90;;;7.29;100.00;101499.81;5015511;28;20038;-86
2022/10/31 05:26:04;;;;;;;0.00;0.00;;;8.50;99.90;;;7.29;100.00;101504.19;5023588;28;20563;-86
2022/10/31 05:28:30;;;;;;;0.00;0.00;;;8.60;99.90;;;7.27;100.00;101503.34;5013618;28;20057;-86
2022/10/31 05:30:56;;;;;;;0.00;0.00;;;8.50;99.90;;;7.24;100.00;101506.91;5009903;28;20029;-86
2022/10/31 05:33:27;;;;;;;0.00;0.00;;;;;;;7.23;100.00;101515.63;5018895;28;20493;-86
2022/10/31 05:35:53;;;;;;;0.00;0.00;;;8.50;99.90;;;7.20;100.00;101510.47;5021316;28;20458;-86
2022/10/31 05:38:19;;;;;;;0.00;0.00;;;8.50;99.90;;;7.19;100.00;101516.59;5023352;28;20037;-86
2022/10/31 05:40:47;;;;;;;0.00;0.00;;;8.40;99.90;;;7.16;100.00;101508.81;5030690;28;20025;-86
2022/10/31 05:43:21;;;;;;;0.00;0.00;;;;;;;7.13;100.00;101511.50;5016017;28;20029;-86
2022/10/31 05:45:47;;;;;;;0.00;0.00;;;;;;;7.14;100.00;101518.44;5021104;28;20144;-86
2022/10/31 05:48:12;;;;;;;0.00;0.00;;;8.40;99.90;;;7.12;100.00;101510.63;5017333;28;20819;-86
2022/10/31 05:50:38;;;;;;;0.00;0.00;;;8.40;99.90;;;7.14;100.00;101519.31;5019108;28;20068;-86
2022/10/31 05:53:15;;;;;;;0.00;0.00;;;8.40;99.90;;;7.16;100.00;101519.28;5022813;28;20056;-86
2022/10/31 05:55:43;;;;;;;0.00;0.00;;;8.40;99.90;;;7.19;100.00;101514.88;5008857;28;20029;-86
2022/10/31 05:58:14;;;;;;;0.00;0.00;;;;;;;7.19;100.00;101514.88;5014456;28;20064;-86
2022/10/31 06:00:40;;;;;;;0.00;0.00;;;8.50;99.90;;;7.20;100.00;101526.19;5019415;28;20033;-86
2022/10/31 06:03:08;;;;;;;0.00;0.00;;;8.50;99.90;;;7.24;100.00;101522.63;5024337;28;20032;-87
2022/10/31 06:05:34;;;;;;;0.00;0.00;;;8.50;99.90;;;7.26;100.00;101526.06;5026494;28;20024;-86
2022/10/31 06:08:09;;;;;;;0.00;0.00;;;;;;;7.33;100.00;101537.28;5008160;28;20021;-86
2022/10/31 06:10:38;;;;;;;0.00;0.00;;;8.60;99.90;;;7.37;100.00;101531.09;5021780;28;20115;-86
2022/10/31 06:13:11;;;;;;;0.00;0.00;;;8.60;99.90;;;7.44;100.00;101545.78;5023571;28;20362;-86
2022/10/31 06:15:42;;;;;;;0.00;0.00;;;8.70;99.90;;;7.48;100.00;101542.22;5002822;28;20585;-87
2022/10/31 06:18:08;;;;;;;0.00;0.00;;;;;;;7.47;100.00;101540.47;5031763;28;20094;-87
2022/10/31 06:20:35;;;;;;;0.00;0.00;;;;;;;7.46;100.00;101537.91;5020999;28;20065;-86
2022/10/31 06:23:11;;;;;;;0.00;0.00;;;8.70;99.90;;;7.48;100.00;101552.69;5021464;28;20092;-87
2022/10/31 06:25:49;;;;;;;;;;;8.70;99.90;;;7.50;100.00;101561.41;5015498;28;20414;-86
2022/10/31 06:28:15;;;;;;;0.00;0.00;;;8.70;99.90;;;7.55;100.00;101561.28;5005288;28;19905;-86
2022/10/31 06:30:40;;;;;;;0.00;0.00;;;8.80;99.90;;;7.58;100.00;101571.69;5008974;28;20145;-86
2022/10/31 06:33:12;;;;;;;0.00;0.00;;;8.80;99.90;;;7.65;100.00;101580.34;5023609;28;20056;-86
2022/10/31 06:35:38;;;;;;;0.00;0.00;;;8.80;99.90;;;7.65;100.00;101572.47;5006616;28;20033;-87
2022/10/31 06:38:04;;;;;;;0.00;0.00;;;8.90;99.90;;;7.64;100.00;101568.09;5018003;28;20028;-87
2022/10/31 06:40:29;;;;;;;0.00;0.00;;;8.80;99.90;;;7.60;100.00;101573.44;5018950;28;20052;-87
2022/10/31 06:43:22;;;;;;;0.00;0.00;;;8.80;99.90;;;7.59;100.00;101576.91;5024480;28;20033;-87
2022/10/31 06:45:51;;;;;;;0.00;0.00;;;;;;;7.58;100.00;101584.81;5005981;28;20072;-87
2022/10/31 06:48:23;;;;;;;0.00;0.00;;;;;;;7.57;100.00;101589.19;5024543;28;20034;-87
2022/10/31 06:50:49;;;;;;;0.00;0.00;;;8.80;99.90;;;7.59;100.00;101591.78;5020408;28;20057;-87
2022/10/31 06:53:18;;;;;;;0.00;0.00;;;;;;;7.63;100.00;101597.84;5002398;28;20524;-87
2022/10/31 06:55:51;;;;;;;0.00;0.00;;;8.90;99.90;;;7.65;100.00;101603.91;5023064;28;20029;-87
2022/10/31 06:58:17;;;;;;;0.00;0.00;;;8.80;99.90;;;7.64;100.00;101608.28;5019871;28;20076;-87
2022/10/31 07:00:43;;;;;;;0.00;0.00;;;8.80;99.90;;;7.56;100.00;101605.81;5026560;28;20116;-87
2022/10/31 07:03:12;;;;;;;0.00;0.00;;;8.80;99.90;;;7.58;100.00;101598.78;5032272;28;20033;-87
2022/10/31 07:06:01;;;;;;;0.00;0.00;;;8.80;99.90;;;7.67;100.00;101597.75;5017190;28;20467;-87
2022/10/31 07:08:29;;;;;;;0.00;0.00;;;8.90;99.90;;;7.80;100.00;101600.97;5015557;28;20416;-87
2022/10/31 07:11:07;;;;;;;0.00;0.00;;;9.00;99.90;;;7.97;100.00;101604.09;5010334;28;20485;-87
2022/10/31 07:13:32;;;;;;;0.00;0.00;;;9.20;99.90;;;8.12;100.00;101602.00;5004913;28;20037;-87
2022/10/31 07:16:11;;;;;;;0.00;0.00;;;9.30;99.90;;;8.26;100.00;101612.22;5029319;28;20601;-87
2022/10/31 07:18:38;;;;;;;0.00;0.00;;;;;;;8.43;100.00;101614.50;5007895;28;20489;-87
2022/10/31 07:21:13;;;;;;;0.00;0.00;;;9.60;99.90;;;8.58;100.00;101628.09;5018514;28;20037;-87
2022/10/31 07:23:38;;;;;;;0.00;0.00;;;9.70;99.90;;;8.73;100.00;101624.25;5010318;28;20029;-87
2022/10/31 07:26:08;;;;;;;0.00;0.00;;;;;;;8.90;100.00;101629.09;5035250;28;20071;-87
2022/10/31 07:31:08;;;;;;;0.00;0.00;;;10.20;99.90;;;9.26;100.00;101625.53;5028875;28;20056;-88
2022/10/31 07:33:33;;;;;;;0.00;0.00;;;10.30;99.90;;;9.47;100.00;101638.09;4997080;28;20040;-87
2022/10/31 07:36:00;;;;;;;0.00;0.00;;;;;;;9.57;100.00;101636.94;5010490;28;20065;-87
2022/10/31 07:38:35;;;;;;;0.00;0.00;;;;;;;9.75;100.00;101642.59;5013784;28;20546;-87
2022/10/31 07:41:01;;;;;;;0.00;0.00;;;;;;;9.90;100.00;101643.91;5010260;28;20029;-87
2022/10/31 07:43:27;;;;;;;0.00;0.00;;;;;;;10.06;100.00;101651.31;5008856;28;20479;-87
2022/10/31 07:46:21;;;;;;;0.00;0.00;;;11.10;99.90;;;10.25;100.00;101651.59;5014734;28;20157;-87
2022/10/31 07:48:47;;;;;;;0.00;0.00;;;;;;;10.33;100.00;101654.06;4945072;28;20039;-86
2022/10/31 07:51:32;;;;;;;;;;;;;;;;;;;;;
2022/10/31 07:54:01;;;;;;;591.55;90.05;;;;;;;10.62;100.00;101654.91;4973554;28;20054;-88
2022/10/31 07:56:27;;;;;;;1999.90;999.90;;;11.60;99.90;;;10.75;100.00;101650.94;4955797;28;20591;-87
2022/10/31 07:58:55;;;;;;;1999.90;999.90;;;;;;;10.91;100.00;101650.44;4967110;28;20033;-86
2022/10/31 08:01:30;;;;;;;1999.90;999.90;;;11.90;99.90;;;11.04;100.00;101665.81;5015544;28;20064;-87
2022/10/31 08:03:58;;;;;;;1999.90;999.90;;;12.10;99.90;;;11.12;100.00;101665.53;5012438;28;20029;-86
2022/10/31 08:09:11;;;;;;;1999.90;999.90;;;;;;;11.27;100.00;101659.78;5017426;28;20041;-85
2022/10/31 08:11:39;;;;;;;1999.90;999.90;;;12.30;99.90;;;11.36;100.00;101657.69;5025894;28;20030;-86
2022/10/31 08:14:06;;;;;;;1999.90;999.90;;;12.40;99.90;;;11.42;100.00;101665.41;5011946;28;20065;-85
2022/10/31 08:16:31;;;;;;;1999.90;999.90;;;12.40;99.90;;;11.49;100.00;101678.34;4988710;28;20034;-86
2022/10/31 08:19:03;;;;;;;1999.90;999.90;;;;;;;11.56;100.00;101672.84;5017384;28;20034;-86
2022/10/31 08:21:29;;;;;;;1999.90;999.90;;;12.50;99.90;;;11.60;100.00;101677.94;5019389;28;20422;-87
2022/10/31 08:23:58;;;;;;;1999.90;999.90;;;12.60;99.90;;;11.63;100.00;101667.28;5012580;28;20029;-87
2022/10/31 08:26:32;;;;;;;1999.90;999.90;;;;;;;11.76;100.00;101677.41;4997823;28;20030;-85
2022/10/31 08:28:58;;;;;;;144.52;40.13;;;12.80;99.90;;;11.83;100.00;101682.38;5007282;28;20083;-87
2022/10/31 08:31:27;;;;;;;95.15;30.08;;;12.80;99.90;;;11.91;100.00;101682.13;5012568;28;20033;-86
2022/10/31 08:34:00;;;;;;;467.67;70.05;;;12.90;99.90;;;12.00;100.00;101673.88;5014965;28;20032;-85
2022/10/31 08:36:28;;;;;;;332.08;59.15;;;13.00;99.90;;;12.07;100.00;101674.50;4994289;28;20034;-86
2022/10/31 08:39:11;;;;;;;336.52;71.72;;;;;;;12.17;100.00;101669.75;4992283;28;20033;-86
2022/10/31 08:41:48;;;;;;;1999.90;999.90;;;13.40;99.90;;;12.25;100.00;101670.31;5014507;28;20030;-87
2022/10/31 08:44:15;;;;;;;1999.90;999.90;;;;;;;12.32;100.00;101672.66;5015495;28;20029;-87
2022/10/31 08:46:50;;;;;;;1999.90;999.90;;;13.30;99.90;;;12.44;100.00;101676.59;5014718;28;20029;-86
2022/10/31 08:49:18;;;;;;;1999.90;999.90;;;;;;;12.52;100.00;101684.22;4989156;28;20026;-86
2022/10/31 08:51:50;;;;;;;1999.90;999.90;;;13.50;99.90;;;12.59;100.00;101668.97;5000765;28;20037;-86
2022/10/31 08:54:18;;;;;;;51.13;28.30;;;13.60;99.90;;;12.68;100.00;101679.19;5007981;28;20653;-87
2022/10/31 08:57:04;;;;;;;122.38;38.42;;;13.70;99.90;;;12.79;100.00;101684.06;5012728;28;20136;-86
2022/10/31 08:59:39;;;;;;;53.60;22.55;;;;;;;12.88;100.00;101684.53;5007037;28;20112;-86
2022/10/31 09:02:08;;;;;;;49.38;19.80;;;;;;;12.94;100.00;101686.06;5005051;28;20030;-86
2022/10/31 09:04:57;;;;;;;39.08;17.58;;;13.90;99.90;;;13.03;100.00;101683.03;5011400;28;20112;-86
2022/10/31 09:07:26;;;;;;;126.13;42.90;;;14.00;99.90;;;13.08;100.00;101686.34;4993271;28;20033;-86
2022/10/31 09:10:18;;;;;;;92.93;24.85;;;;;;;13.14;100.00;101693.16;5011424;28;20385;-87
2022/10/31 09:12:47;;;;;;;448.85;137.50;;;;;;;13.22;100.00;101701.63;5002687;28;20041;-87
2022/10/31 09:15:24;;;;;;;1512.97;761.60;;;14.20;99.90;;;13.29;100.00;101703.13;5007558;28;20088;-85
2022/10/31 09:17:50;;;;;;;0.00;0.00;;;14.30;99.90;;;13.32;100.00;101702.97;4995920;28;20034;-86
2022/10/31 09:20:16;;;;;;;96.18;86.82;;;14.30;99.90;;;13.36;100.00;101705.50;5015005;28;20095;-86
2022/10/31 09:23:06;;;;;;;1999.90;999.90;;;14.30;99.90;;;13.39;100.00;101700.06;5020733;28;20136;-86
2022/10/31 09:25:34;;;;;;;0.08;0.08;;;14.30;99.90;;;13.43;100.00;101705.16;4994880;28;20041;-86
2022/10/31 09:28:11;;;;;;;0.00;0.00;;;14.40;99.90;;;13.48;100.00;101713.78;5010504;28;20044;-87
2022/10/31 09:30:37;;;;;;;301.58;59.28;;;14.40;99.90;;;13.47;100.00;101711.19;5017994;28;20041;-87
2022/10/31 09:33:14;;;;;;;311.58;65.25;;;14.40;99.90;;;13.47;100.00;101711.19;5009447;28;20139;-87
2022/10/31 09:35:41;;;;;;;333.88;62.20;;;14.50;99.90;;;13.45;100.00;101716.53;5010650;28;20409;-86
2022/10/31 09:38:20;;;;;;;342.40;63.38;;;;;;;13.41;100.00;101722.03;5010251;28;20057;-87
2022/10/31 09:41:18;;;;;;;209.90;50.78;;;14.40;99.90;;;13.40;100.00;101725.63;5009385;28;20033;-86
2022/10/31 09:44:28;;;;;;;391.63;62.25;;;14.40;99.90;;;13.37;100.00;101712.50;5012400;28;20037;-86
2022/10/31 09:47:36;;;;;;;308.48;59.85;;;14.40;99.90;;;13.37;100.00;101731.03;5014890;28;20045;-86
2022/10/31 09:50:21;;;;;;;273.45;56.45;;;14.30;99.90;;;13.31;100.00;101732.16;5011176;28;20113;-86
2022/10/31 09:53:27;;;;;;;301.40;60.55;;;14.30;99.90;;;13.30;100.00;101739.25;5017548;28;20033;-87
2022/10/31 09:55:57;;;;;;;298.50;59.65;;;14.30;99.90;;;13.29;100.00;101740.16;4957930;28;20041;-85
2022/10/31 09:58:35;;;;;;;284.58;56.85;;;;;;;13.33;100.00;101740.91;4997667;28;20026;-86
2022/10/31 10:01:31;;;;;;;320.40;61.20;;;;;;;13.34;100.00;101743.44;5007961;28;20046;-86
2022/10/31 10:04:40;;;;;;;311.98;60.78;;;14.30;99.90;;;13.33;100.00;101733.81;5003207;28;20056;-85
2022/10/31 10:07:41;;;;;;;252.85;52.97;;;14.40;99.90;;;13.34;100.00;101732.88;4990499;28;20037;-85
2022/10/31 10:10:30;;;;;;;204.23;47.92;;;;;;;13.37;100.00;101736.31;4967810;28;20030;-85
2022/10/31 10:13:11;;;;;;;338.45;56.78;;;14.30;99.90;;;13.34;100.00;101737.31;5004377;28;20034;-86
2022/10/31 10:16:16;;;;;;;195.02;46.97;;;14.30;99.90;;;13.38;100.00;101727.47;4998854;28;20482;-86
2022/10/31 10:19:39;;;;;;;270.75;53.65;;;14.40;99.90;;;13.39;100.00;101734.47;5022493;28;20029;-86
2022/10/31 10:22:47;;;;;;;188.05;46.15;;;14.40;99.90;;;13.42;100.00;101737.84;5008868;28;20164;-85
2022/10/31 10:25:18;;;;;;;;;;;14.40;99.90;;;13.50;100.00;101735.75;5012702;28;20494;-86
2022/10/31 10:28:10;;;;;;;264.60;49.65;;;14.50;99.90;;;13.60;100.00;101735.34;5006933;28;19909;-86
2022/10/31 10:31:23;;;;;;;330.52;53.67;;;14.60;99.90;;;13.74;100.00;101738.25;5007471;28;20038;-86
2022/10/31 10:34:37;;;;;;;411.00;54.85;;;14.70;99.90;;;13.81;100.00;101737.06;5016559;28;20045;-86
2022/10/31 10:37:47;;;;;;;189.48;44.13;;;14.80;99.90;;;13.91;100.00;101724.28;5004461;28;20057;-86
2022/10/31 10:40:30;;;;;;;365.90;50.97;;;14.90;99.90;;;13.99;100.00;101721.28;4993358;28;20049;-86
2022/10/31 10:43:37;;;;;;;270.58;48.08;;;14.90;99.90;;;14.05;100.00;101713.06;5022254;28;20053;-86
2022/10/31 10:49:51;;;;;;;327.95;52.42;;;15.10;99.90;;;14.15;100.00;101724.97;5009717;28;20413;-85
2022/10/31 10:52:29;;;;;;;180.02;38.75;;;15.10;99.90;;;14.22;100.00;101722.88;4994539;28;20037;-86
2022/10/31 10:55:20;;;;;;;146.05;41.88;;;15.20;99.90;;;14.28;100.00;101728.75;4991922;28;20095;-85
2022/10/31 10:58:01;;;;;;;200.60;46.53;;;;;;;14.35;100.00;101726.69;5020859;28;20028;-86
2022/10/31 11:00:46;;;;;;;276.38;52.97;;;15.30;99.90;;;14.31;100.00;101725.94;5001010;28;20071;-86
2022/10/31 11:03:38;;;;;;;213.32;48.78;;;15.30;99.90;;;14.39;100.00;101725.59;5007463;28;20390;-86
2022/10/31 11:06:22;;;;;;;219.25;48.92;;;15.30;99.90;;;14.44;100.00;101733.34;5017665;28;20529;-86
2022/10/31 11:08:56;;;;;;;219.00;50.90;;;15.40;99.90;;;14.48;100.00;101734.91;4984492;28;20033;-85
2022/10/31 11:12:00;;;;;;;224.23;52.42;;;15.40;99.90;;;14.53;100.00;101730.25;5009886;28;20030;-85
2022/10/31 11:14:48;;;;;;;255.23;56.67;;;15.50;99.90;;;14.58;100.00;101733.59;5002794;28;20088;-86
2022/10/31 11:17:32;;;;;;;220.95;56.75;;;15.50;99.90;;;14.62;100.00;101728.97;4983165;28;20049;-85
2022/10/31 11:20:24;;;;;;;248.23;57.58;;;15.50;99.90;;;14.66;100.00;101730.56;4992946;28;20040;-86
2022/10/31 11:23:21;;;;;;;223.80;56.42;;;15.60;99.90;;;14.71;100.00;101723.25;5010337;28;20034;-86
2022/10/31 11:26:07;;;;;;;213.18;55.22;;;15.60;99.90;;;14.77;100.00;101733.53;5005309;28;20067;-85
2022/10/31 11:28:40;;;;;;;250.32;61.42;;;;;;;14.79;100.00;101731.69;4992073;28;20061;-85
2022/10/31 11:31:18;;;;;;;259.15;58.58;;;15.70;99.90;;;14.83;100.00;101727.94;5007944;28;20045;-85
2022/10/31 11:33:49;;;;;;;277.83;62.75;;;15.70;99.90;;;14.88;100.00;101731.25;4995433;28;20038;-85
2022/10/31 11:36:42;;;;;;;239.48;59.00;;;15.80;99.90;;;14.88;100.00;101735.69;5010237;28;20119;-86
2022/10/31 11:39:22;;;;;;;298.08;61.38;;;15.80;99.90;;;14.92;100.00;101739.91;5010839;28;20457;-86
2022/10/31 11:42:02;;;;;;;236.70;59.42;;;15.80;99.90;;;14.96;100.00;101736.16;5008069;28;20392;-86
2022/10/31 11:44:30;;;;;;;301.35;63.67;;;15.90;99.90;;;14.99;100.00;101738.69;5012546;28;20048;-86
2022/10/31 11:47:25;;;;;;;330.90;69.03;;;15.90;99.90;;;15.02;100.00;101730.56;5000780;28;20486;-85
2022/10/31 11:49:50;;;;;;;277.48;64.20;;;15.90;99.90;;;15.03;100.00;101731.41;4990428;28;20486;-85
2022/10/31 11:52:25;;;;;;;320.67;69.15;;;15.90;99.90;;;15.02;100.00;101737.69;4992644;28;20030;-84
2022/10/31 11:54:54;;;;;;;300.20;68.97;;;16.00;99.90;;;14.99;100.00;101736.03;4997470;28;20042;-84